Terminal Aerodrome Forecast
Issued by NWS

Current Version | Previous Version | Text Only | Print | Product List | Glossary Off
Versions: 1 2 3 4 5 6 7 8 9 10 11 12 13 14 15 16 17 18 19 20 21 22 23 24 25

688
FTUS41 KILN 231007 AAB
TAFLCK
TAF AMD
KLCK 231007Z 2310/2406 19007KT P6SM FEW008 OVC045
     FM231500 21008KT P6SM BKN028
     FM232100 21007KT P6SM VCSH BKN035
     FM240000 17004KT P6SM BKN040
     FM240300 VRB03KT P6SM BKN029=

USA.gov is the U.S. government's official web portal to all federal, state and local government web resources and services.